Flight Track Log - Related Links

Times and Time Zones

All times are in EDT time to prevent confusion due to time zone crossing. See the DAL6269 flight status page for this flight to view local times or setup timezone preferences in your user account.

Time Position Orientation Groundspeed Altitude Reporting Facility
EDT Latitude Longitude Course Direction KTS MPH feet Rate Location/Type
Sun 06:12:39 AM 35.8989 -78.7742 15° North 152 175 1,600  Level Washington Center
Sun 06:13:22 AM 35.9261 -78.7650 15° North 169 194 2,700 1,961 Climbing Washington Center
Sun 06:15:12 AM 35.9669 -78.8819 293° West 222 255 6,600 2,506 Climbing Washington Center
Sun 06:16:12 AM 35.9856 -78.9650 286° West 237 273 9,800 2,800 Climbing Washington Center
Sun 06:17:12 AM 35.9997 -79.0528 281° West 250 288 12,200 2,800 Climbing Washington Center
Sun 06:18:12 AM 36.0178 -79.1486 283° West 260 299 15,400 2,650 Climbing Washington Center
Sun 06:19:12 AM 36.0319 -79.2289 282° West 260 299 17,500 1,322 Climbing Washington Center
Sun 06:20:10 AM 36.0539 -79.3303 285° West 273 314 18,000 1,128 Climbing Washington Center
Sun 06:21:09 AM 36.1394 -79.3961 328° Northwest 314 361 19,700 1,623 Climbing Washington Center
Sun 06:22:12 AM 36.2447 -79.4319 345° North 336 387 21,300 1,623 Climbing Washington Center
Sun 06:23:11 AM 36.3278 -79.5083 323° Northwest 369 425 23,000 1,550 Climbing Washington Center
Sun 06:24:12 AM 36.4231 -79.5956 324° Northwest 379 436 24,400 1,240 Climbing Washington Center
Sun 06:25:12 AM 36.5119 -79.6778 323° Northwest 384 442 25,500 1,109 Climbing Washington Center
Sun 06:26:11 AM 36.5925 -79.7597 321° Northwest 399 459 26,600 1,119 Climbing Washington Center
Sun 06:27:10 AM 36.6511 -79.8714 303° West 392 451 27,700 1,141 Climbing Washington Center
Sun 06:28:54 AM 36.7600 -80.0683 305° West 397 457 29,700 1,127 Climbing Indianapolis Center
Sun 06:29:55 AM 36.8175 -80.1803 303° West 392 451 30,800 1,190 Climbing Indianapolis Center
Sun 06:30:55 AM 36.8744 -80.2883 303° West 384 442 32,100 1,350 Climbing Indianapolis Center
Sun 06:31:55 AM 36.9278 -80.3936 302° West 371 427 33,500 1,388 Climbing Indianapolis Center
Sun 06:32:56 AM 36.9914 -80.5161 303° West 361 415 34,900 1,140 Climbing Indianapolis Center
Sun 06:33:56 AM 37.0414 -80.6164 302° West 350 403 35,800 950 Climbing Indianapolis Center
Sun 06:34:56 AM 37.1006 -80.7119 308° West 357 411 36,800 843 Climbing Indianapolis Center
Sun 06:35:57 AM 37.1936 -80.7753 332° Northwest 386 444 37,500 595 Climbing Indianapolis Center
Sun 06:36:57 AM 37.2944 -80.8325 336° Northwest 401 461 38,000 248 Climbing Indianapolis Center
Sun 06:37:58 AM 37.3933 -80.8911 335° Northwest 403 464 38,000  Level Indianapolis Center
Sun 06:38:58 AM 37.4942 -80.9511 335° Northwest 408 470 38,000  Level Indianapolis Center
Sun 06:39:58 AM 37.6158 -81.0239 335° Northwest 411 473 38,000  Level Indianapolis Center
Sun 06:40:59 AM 37.7183 -81.0839 335° Northwest 413 475 38,000  Level Indianapolis Center
Sun 06:41:59 AM 37.8317 -81.1417 338° Northwest 423 487 38,000  Level Indianapolis Center
Sun 06:43:00 AM 37.9506 -81.1853 344° North 441 507 38,000  Level Indianapolis Center
Sun 06:44:00 AM 38.0442 -81.2154 346° North  Level FlightAware Approximate
Sun 06:45:01 AM 38.1878 -81.2750 346° North 445 512 38,000  Level Indianapolis Center
Sun 06:46:01 AM 38.3061 -81.3192 344° North 443 510 38,000  Level Indianapolis Center
Sun 06:47:02 AM 38.4239 -81.3633 344° North 442 509 38,000  Level Indianapolis Center
Sun 06:48:02 AM 38.5394 -81.4069 344° North 437 503 38,000  Level Indianapolis Center
Sun 06:49:03 AM 38.6508 -81.4503 343° North 434 499 38,000  Level Indianapolis Center
Sun 06:51:04 AM 38.8778 -81.5364 344° North 436 502 38,000  Level Indianapolis Center
Sun 06:53:05 AM 39.1050 -81.6250 343° North 427 491 38,000 -99 Level Indianapolis Center
Sun 06:55:06 AM 39.3372 -81.7144 343° North 434 499 37,600 -659 Descending Indianapolis Center
Sun 06:56:07 AM 39.4528 -81.7594 343° North 433 498 36,000 -1,488 Descending Indianapolis Center
Sun 06:57:07 AM 39.5667 -81.8053 343° North 428 493 34,600 -1,438 Descending Indianapolis Center
Sun 06:58:08 AM 39.6806 -81.8486 344° North 426 490 33,100 -1,525 Descending Indianapolis Center
Sun 06:59:09 AM 39.8108 -81.8789 350° North 435 501 31,500 -1,537 Descending Indianapolis Center
Sun 07:00:09 AM 39.9336 -81.9019 352° North 445 512 30,000 -744 Descending Indianapolis Center
Sun 07:01:10 AM 40.0544 -81.9231 352° North 442 509 30,000  Level Indianapolis Center
Sun 07:02:11 AM 40.1739 -81.9447 352° North 434 499 30,000  Level Indianapolis Center
Sun 07:03:11 AM 40.3083 -81.9692 352° North 433 498 30,000  Level Indianapolis Center
Sun 07:04:12 AM 40.4275 -81.9914 352° North 429 494 30,000  Level Indianapolis Center
Sun 07:05:13 AM 40.5447 -82.0119 352° North 421 484 30,000  Level Indianapolis Center
Sun 07:06:14 AM 40.6614 -82.0331 352° North 418 481 30,000 -149 Level Indianapolis Center
Sun 07:07:14 AM 40.7764 -82.0531 352° North 413 475 29,700 -1,041 Descending Indianapolis Center
Sun 07:08:15 AM 40.8931 -82.0756 352° North 417 480 27,900 -1,721 Descending Indianapolis Center
Sun 07:09:16 AM 41.0067 -82.0953 353° North 408 470 26,200 -1,736 Descending Indianapolis Center
Sun 07:10:16 AM 41.1175 -82.1153 352° North 397 457 24,400 -1,091 Descending Indianapolis Center
Sun 07:11:17 AM 41.2106 -82.1331 352° North 399 459 24,000 -197 Descending Indianapolis Center
Sun 07:12:18 AM 41.3244 -82.1536 352° North 404 465 24,000 -787 Level Indianapolis Center
Sun 07:13:19 AM 41.4075 -82.2325 325° Northwest 366 421 22,400 -1,785 Descending Indianapolis Center
Sun 07:14:19 AM 41.4656 -82.3381 306° West 351 404 20,400 -2,033 Descending Indianapolis Center
Sun 07:15:20 AM 41.5264 -82.4400 309° West 349 402 18,300 -2,294 Descending Indianapolis Center
Sun 07:16:01 AM 41.5756 -82.5258 307° West 338 389 16,500 -2,377 Descending Cleveland Center
Sun 07:16:13 AM 41.5828 -82.5406 303° West 336 387 16,200 -1,636 Descending Cleveland Center
Sun 07:16:45 AM 41.6131 -82.5858 312° West 332 382 15,300 -1,869 Descending Cleveland Center
Sun 07:17:14 AM 41.6411 -82.6347 308° West 324 373 14,300 -1,869 Descending Cleveland Center
Sun 07:17:46 AM 41.6664 -82.6772 309° West 322 371 13,400 -1,869 Descending Cleveland Center
Sun 07:18:15 AM 41.6969 -82.7311 307° West 314 361 12,400 -1,377 Descending Cleveland Center
Sun 07:18:47 AM 41.7211 -82.7672 312° West 314 361 12,000 -393 Descending Cleveland Center
Sun 07:19:16 AM 41.7572 -82.8203 312° West 321 369 12,000  Level Cleveland Center
Sun 07:19:48 AM 41.7864 -82.8514 322° Northwest 325 374 12,000  Level Cleveland Center
Sun 07:20:17 AM 41.8247 -82.8992 317° Northwest 326 375 12,000  Level Cleveland Center
Sun 07:20:49 AM 41.8539 -82.9306 321° Northwest 323 372 12,000  Level Cleveland Center
Sun 07:21:17 AM 41.8922 -82.9781 317° Northwest 320 368 12,000  Level Cleveland Center
Sun 07:21:50 AM 41.9150 -83.0142 310° West 314 361 12,000  Level Cleveland Center
Sun 07:22:18 AM 41.9419 -83.0689 304° West 303 349 12,000  Level Cleveland Center
Sun 07:22:51 AM 41.9628 -83.1064 307° West 303 349 12,000  Level Cleveland Center
Sun 07:23:19 AM 41.9972 -83.1692 306° West 302 348 12,000  Level Cleveland Center
Sun 07:23:52 AM 42.0175 -83.2083 305° West 306 352 12,000  Level Cleveland Center
Sun 07:24:20 AM 42.0514 -83.2553 314° West 318 366 12,000  Level Cleveland Center
Sun 07:24:53 AM 42.0800 -83.2908 317° Northwest 312 359 12,000  Level Cleveland Center
Sun 07:25:21 AM 42.1161 -83.3375 316° Northwest 316 364 12,000 -98 Level Cleveland Center
Sun 07:25:54 AM 42.1439 -83.3714 318° Northwest 312 359 11,900 -98 Descending Cleveland Center
Sun 07:26:22 AM 42.1753 -83.4106 317° Northwest 247 284 11,900 98 Level Cleveland Center
Sun 07:26:55 AM 42.1969 -83.4344 321° Northwest 258 297 12,000 -787 Climbing Cleveland Center
Sun 07:27:23 AM 42.2214 -83.4650 317° Northwest 218 251 11,100 -1,967 Descending Cleveland Center
Sun 07:27:56 AM 42.2436 -83.4869 324° Northwest 222 255 10,000 -2,066 Descending Cleveland Center
Sun 07:28:24 AM 42.2811 -83.4794 North 260 299 9,000 -1,869 Descending Cleveland Center
Sun 07:28:57 AM 42.3083 -83.4581 30° Northeast 250 288 8,100 -2,000 Descending Cleveland Center
Sun 07:29:24 AM 42.3453 -83.4347 25° Northeast 252 290 7,000 -2,066 Descending Cleveland Center
Sun 07:29:58 AM 42.3711 -83.4139 31° Northeast 251 289 6,000 -1,967 Descending Cleveland Center
Sun 07:30:25 AM 42.4031 -83.3922 27° Northeast 238 274 5,000 -1,869 Descending Cleveland Center
Sun 07:30:59 AM 42.4092 -83.3547 78° East 246 283 4,100 -1,967 Descending Cleveland Center
Sun 07:31:26 AM 42.3889 -83.3081 120° Southeast 230 265 3,000 -1,180 Descending Cleveland Center
Sun 07:32:00 AM 42.3672 -83.3033 171° South 230 265 2,900  Descending Cleveland Center
Sun 07:32:27 AM 42.3372 -83.2981 173° South 173 199 3,000 -98 Climbing Cleveland Center
Sun 07:33:01 AM 42.3183 -83.2967 177° South 194 223 2,800 -700 Descending Cleveland Center
Sun 07:33:27 AM 42.2983 -83.3125 210° Southwest 123 142 2,300 -689 Descending Cleveland Center
Sun 07:34:02 AM 42.2869 -83.3197 205° Southwest 147 169 2,100 -590 Descending Cleveland Center
Sun 07:34:28 AM 42.2694 -83.3336 210° Southwest 115 132 1,700 -590 Descending Cleveland Center
Sun 07:35:03 AM 42.2589 -83.3411 208° Southwest 125 144 1,500 -590 Descending Cleveland Center
Sun 07:35:29 AM 42.2425 -83.3553 213° Southwest 120 138 1,100 -689 Descending Cleveland Center
Sun 07:36:04 AM 42.2303 -83.3628 204° Southwest 120 138 800 -514 Descending Cleveland Center

Login

Don't have an account? Register now (free) for customized features, flight alerts, and more!